Flight Track Log - Related Links

Times and Time Zones

All times are in EDT time to prevent confusion due to time zone crossing. See the UPS235 flight status page for this flight to view local times or setup timezone preferences in your user account.

Time Position Orientation Groundspeed Altitude Reporting Facility
EDT Latitude Longitude Course Direction KTS MPH feet Rate Location/Type
Tue 09:39:08 AM 40.6667 -74.1833 237° Southwest 159 183 2,100  Level New York TRACON
Tue 09:40:08 AM 40.6500 -74.2167 237° Southwest 208 239 3,600 1,800 Climbing New York TRACON
Tue 09:41:08 AM 40.7167 -74.2167 360° North 295 339 5,700 2,100 Climbing New York TRACON
Tue 09:43:08 AM 40.8500 -74.0667 40° Northeast 356 410 9,900 1,567 Climbing New York TRACON
Tue 09:45:36 AM 41.0189 -73.7878 51° Northeast 441 507 12,700 1,378 Climbing Boston Center
Tue 09:46:37 AM 41.1314 -73.6742 37° Northeast 473 544 14,700 1,820 Climbing Boston Center
Tue 09:47:38 AM 41.2389 -73.5672 37° Northeast 481 554 16,400 1,082 Climbing Boston Center
Tue 09:48:39 AM 41.3469 -73.4539 38° Northeast 494 568 16,900 1,328 Climbing Boston Center
Tue 09:49:40 AM 41.4436 -73.3517 38° Northeast 498 573 19,100 1,971 Climbing Boston Center
Tue 09:55:27 AM 42.1972 -72.9246 61° Northeast 634 730 30,300 1,875 Climbing FlightAware ADS-B (LDSP / SPU)
Tue 09:56:04 AM 42.2456 -72.7424 71° East 631 726 31,100 472 Climbing FlightAware ADS-B
Tue 09:56:56 AM 42.2958 -72.5454 72° East 628 723 31,000 -72 Descending FlightAware ADS-B (KASH)
Tue 09:57:27 AM 42.3244 -72.4328 72° East 625 719 31,000  Level FlightAware ADS-B (KASH)
Tue 09:58:01 AM 42.3564 -72.3064 71° East 627 722 31,000  Level FlightAware ADS-B
Tue 09:58:41 AM 42.3936 -72.1600 72° East 625 719 31,000  Level FlightAware ADS-B (KASH)
Tue 09:59:12 AM 42.4231 -72.0439 72° East 623 717 31,000  Level FlightAware ADS-B (KASH)
Tue 09:59:42 AM 42.4509 -71.9337 72° East 624 718 31,000  Level FlightAware ADS-B (KASH)
Tue 10:00:12 AM 42.4795 -71.8203 72° East 624 718 31,000  Level FlightAware ADS-B (KASH)
Tue 10:00:43 AM 42.5075 -71.7087 72° East 624 718 31,000  Level FlightAware ADS-B (KASH)
Tue 10:00:56 AM 42.5182 -71.6660 71° East 626 720 31,000  Level FlightAware ADS-B
Tue 10:01:27 AM 42.5484 -71.5446 72° East 623 717 31,000  Level FlightAware ADS-B (KASH)
Tue 10:01:57 AM 42.5758 -71.4337 72° East 624 718 31,000  Level FlightAware ADS-B (KASH)
Tue 10:02:27 AM 42.6036 -71.3206 72° East 625 719 31,000  Level FlightAware ADS-B (KASH)
Tue 10:02:57 AM 42.6305 -71.2108 72° East 625 719 31,000  Level FlightAware ADS-B (KASH)
Tue 10:03:34 AM 42.6636 -71.0744 72° East 623 717 31,000  Level FlightAware ADS-B
Tue 10:04:04 AM 42.6903 -70.9639 72° East 623 717 31,000  Level FlightAware ADS-B
Tue 10:04:39 AM 42.7222 -70.8310 72° East 623 717 31,000  Level FlightAware ADS-B (KASH)
Tue 10:05:13 AM 42.7527 -70.7041 72° East 622 716 31,000  Level FlightAware ADS-B (KASH)
Tue 10:06:06 AM 42.7992 -70.5080 72° East 624 718 31,000  Level FlightAware ADS-B
Tue 10:06:56 AM 42.8430 -70.3221 73° East 621 715 31,000  Level FlightAware ADS-B (KASH)
Tue 10:07:36 AM 42.8750 -70.1853 73° East 622 716 31,000  Level FlightAware ADS-B
Tue 10:08:13 AM 42.9099 -70.0350 73° East 619 712 31,000  Level FlightAware ADS-B (KASH)
Tue 10:08:52 AM 42.9434 -69.8897 73° East 619 712 31,000  Level FlightAware ADS-B (KASH)
Tue 10:09:27 AM 42.9736 -69.7583 73° East 619 712 31,000  Level FlightAware ADS-B (KASH)
Tue 10:09:31 AM 42.9766 -69.7450 74° East 619 712 31,000  Level FlightAware ADS-B (KASH)
Tue 10:10:13 AM 43.0127 -69.5863 73° East 618 711 31,000  Level FlightAware ADS-B (KASH)
Tue 10:10:58 AM 43.0503 -69.4195 73° East 615 708 31,000  Level FlightAware ADS-B
Tue 10:11:34 AM 43.0702 -69.3311 73° East 612 704 31,000  Level FlightAware ADS-B (EGHI / SOU)
Tue 10:12:27 AM 43.1234 -69.0929 73° East 610 702 31,000  Level FlightAware ADS-B (KASH)
Tue 10:13:14 AM 43.1543 -68.9528 73° East 608 700 31,000  Level FlightAware ADS-B (EGHI / SOU)
Tue 10:13:53 AM 43.1936 -68.7738 73° East 607 699 31,000  Level FlightAware ADS-B
Tue 10:14:23 AM 43.2174 -68.6646 73° East 606 697 31,000  Level FlightAware ADS-B (EGHI / SOU)
Tue 10:14:53 AM 43.2394 -68.5629 74° East 603 694 31,000  Level FlightAware ADS-B (EGHI / SOU)
Tue 10:15:30 AM 43.2701 -68.4206 74° East 598 688 31,000  Level FlightAware ADS-B (EGHI / SOU)
Tue 10:16:03 AM 43.2947 -68.3056 74° East 593 682 31,000  Level FlightAware ADS-B (EGHI / SOU)
Tue 10:16:34 AM 43.3174 -68.1987 74° East 591 680 31,000  Level FlightAware ADS-B (EGHI / SOU)
Tue 10:17:04 AM 43.3413 -68.0855 74° East 586 674 31,000  Level FlightAware ADS-B (EGHI / SOU)
Tue 10:17:42 AM 43.3707 -67.9471 74° East 582 670 31,000  Level FlightAware ADS-B (EGHI / SOU)
Tue 10:18:14 AM 43.3910 -67.8484 74° East 569 655 31,000  Level FlightAware ADS-B (EGHI / SOU)
Tue 10:18:44 AM 43.4152 -67.7327 74° East 560 644 31,000  Level FlightAware ADS-B (EGHI / SOU)
Tue 10:19:23 AM 43.4419 -67.6032 74° East 560 644 31,000  Level FlightAware ADS-B (EGHI / SOU)
Tue 10:19:53 AM 43.4638 -67.4974 74° East 564 649 31,000  Level FlightAware ADS-B (EGHI / SOU)
Tue 10:20:24 AM 43.4859 -67.3908 74° East 568 654 31,000  Level FlightAware ADS-B (EGHI / SOU)
Tue 10:21:05 AM 43.5150 -67.2481 74° East 562 647 31,000  Level FlightAware ADS-B (EGHI / SOU)
Tue 10:21:35 AM 43.5341 -67.1535 74° East 559 643 31,000  Level FlightAware ADS-B (EGHI / SOU)
Tue 10:22:14 AM 43.5655 -67.0132 70° East 555 639 31,000  Level FlightAware ADS-B (EGHI / SOU)
Tue 10:22:45 AM 43.5965 -66.9131 65° Northeast 553 636 31,000  Level FlightAware ADS-B (EGHI / SOU)
Tue 10:23:22 AM 43.6334 -66.8087 64° Northeast 551 634 31,000  Level FlightAware ADS-B (EGHI / SOU)
Tue 10:23:54 AM 43.6745 -66.6947 64° Northeast 552 635 31,000  Level FlightAware ADS-B (EGHI / SOU)
Tue 10:24:33 AM 43.7184 -66.5709 64° Northeast 555 639 31,000  Level FlightAware ADS-B (EGHI / SOU)
Tue 10:25:15 AM 43.7636 -66.4446 64° Northeast 558 642 31,000  Level FlightAware ADS-B (EGHI / SOU)
Tue 10:26:03 AM 43.8181 -66.2911 64° Northeast 557 641 31,000  Level FlightAware ADS-B (EGHI / SOU)
Tue 10:26:35 AM 43.8562 -66.1830 64° Northeast 557 641 31,000  Level FlightAware ADS-B (EGHI / SOU)
Tue 10:27:14 AM 43.9000 -66.0582 64° Northeast 562 647 31,000  Level FlightAware ADS-B (EGHI / SOU)
Tue 10:27:54 AM 43.9452 -65.9288 64° Northeast 564 649 31,000  Level FlightAware ADS-B (EGHI / SOU)
Tue 10:28:35 AM 43.9889 -65.8035 64° Northeast 562 647 31,000  Level FlightAware ADS-B (EGHI / SOU)
Tue 10:29:24 AM 44.0424 -65.6484 65° Northeast 561 646 31,000  Level FlightAware ADS-B (EGHI / SOU)
Tue 10:30:05 AM 44.0926 -65.5025 65° Northeast 561 646 31,000  Level FlightAware ADS-B (EGHI / SOU)
Tue 10:30:43 AM 44.1353 -65.3773 65° Northeast 560 644 31,000  Level FlightAware ADS-B (EGHI / SOU)
Tue 10:31:14 AM 44.1665 -65.2855 65° Northeast 559 643 31,000  Level FlightAware ADS-B (EGHI / SOU)
Tue 10:31:44 AM 44.2014 -65.1828 65° Northeast 561 646 31,000  Level FlightAware ADS-B (EGHI / SOU)
Tue 10:32:14 AM 44.2351 -65.0827 65° Northeast 566 651 31,000  Level FlightAware ADS-B (EGHI / SOU)
Tue 10:32:45 AM 44.2654 -64.9931 65° Northeast 571 657 31,000  Level FlightAware ADS-B (EGHI / SOU)
Tue 10:33:15 AM 44.2952 -64.9050 65° Northeast 572 658 31,000  Level FlightAware ADS-B (EGHI / SOU)
Tue 10:33:55 AM 44.3445 -64.7574 65° Northeast 571 657 31,000  Level FlightAware ADS-B (EGHI / SOU)
Tue 10:34:25 AM 44.3790 -64.6538 65° Northeast 571 657 31,000  Level FlightAware ADS-B (EGHI / SOU)
Tue 10:35:04 AM 44.4250 -64.5149 65° Northeast 572 658 31,000  Level FlightAware ADS-B (EGHI / SOU)
Tue 10:35:34 AM 44.4482 -64.4447 66° East 574 661 31,000  Level FlightAware ADS-B (EGHI / SOU)
Tue 10:36:14 AM 44.4988 -64.2905 65° Northeast 573 659 31,000  Level FlightAware ADS-B (EGHI / SOU)
Tue 10:36:48 AM 44.5397 -64.1655 65° Northeast 571 657 31,000  Level FlightAware ADS-B (EGHI / SOU)
Tue 10:37:19 AM 44.5740 -64.0596 66° East 569 655 31,000  Level FlightAware ADS-B (EGHI / SOU)
Tue 10:38:27 AM 44.6469 -63.8343 66° East 566 651 31,000  Level FlightAware ADS-B (EGHI / SOU)
Tue 10:39:04 AM 44.6864 -63.7114 66° East 564 649 31,000  Level FlightAware ADS-B (EGHI / SOU)
Tue 10:39:59 AM 44.7333 -63.5333 66° East 560 644 31,000  Level Moncton Center
Tue 10:40:59 AM 44.8000 -63.3167 66° East 560 644 31,000  Level Moncton Center
Tue 10:41:59 AM 44.8500 -63.1167 71° East 560 644 31,000  Level Moncton Center
Tue 10:42:59 AM 44.9167 -62.9167 65° Northeast 560 644 31,000  Level Moncton Center
Tue 10:49:29 AM 45.3319 -61.6133 67° East 563 648 31,000  Level FlightAware ADS-B (CYQY)
Tue 10:51:06 AM 45.4300 -61.2783 67° East 563 648 31,000  Level FlightAware ADS-B (CYQY)
Tue 10:51:34 AM 45.4582 -61.1816 67° East 563 648 31,000  Level FlightAware ADS-B (CYQY)
Tue 10:52:05 AM 45.4807 -61.1037 67° East 564 649 31,000  Level FlightAware ADS-B (CYQY)
Tue 10:52:35 AM 45.5052 -61.0187 67° East 564 649 31,000  Level FlightAware ADS-B (CYQY)
Tue 10:53:07 AM 45.5493 -60.8654 67° East 564 649 31,000  Level FlightAware ADS-B (CYQY)
Tue 10:53:37 AM 45.5786 -60.7627 67° East 564 649 31,000  Level FlightAware ADS-B (CYQY)
Tue 10:54:02 AM 45.6025 -60.6785 67° East 564 649 31,000  Level FlightAware ADS-B (CYQY)
Tue 10:54:34 AM 45.6341 -60.5667 67° East 564 649 31,000  Level FlightAware ADS-B (CYQY)
Tue 10:55:05 AM 45.6651 -60.4571 67° East 564 649 31,000  Level FlightAware ADS-B (CYQY)
Tue 10:55:35 AM 45.6933 -60.3568 67° East 564 649 31,000  Level FlightAware ADS-B (CYQY)
Tue 10:56:05 AM 45.7224 -60.2527 67° East 564 649 31,000  Level FlightAware ADS-B (CYQY)
Tue 10:56:37 AM 45.7511 -60.1499 68° East 563 648 31,000  Level FlightAware ADS-B (CYQY)
Tue 10:57:03 AM 45.7786 -60.0512 68° East 563 648 31,000  Level FlightAware ADS-B (CYQY)
Tue 10:57:37 AM 45.8109 -59.9337 68° East 561 646 31,000  Level FlightAware ADS-B (CYQY)
Tue 10:58:08 AM 45.8395 -59.8300 68° East 560 644 31,000  Level FlightAware ADS-B (CYQY)
Tue 10:58:25 AM 45.8559 -59.7703 68° East 560 644 31,000  Level FlightAware ADS-B (CYQY)
Tue 10:59:01 AM 45.8897 -59.6462 68° East 557 641 31,000  Level FlightAware ADS-B (CYQY)
Tue 10:59:33 AM 45.9175 -59.5434 68° East 554 638 31,000  Level FlightAware ADS-B (CYQY)
Tue 11:00:00 AM 45.9443 -59.4441 68° East 552 635 31,000  Level FlightAware ADS-B (CYQY)
Tue 11:00:23 AM 45.9662 -59.3635 68° East 549 632 31,000  Level FlightAware ADS-B (CYQY)
Tue 11:00:51 AM 45.9830 -59.3010 68° East 548 631 31,000  Level FlightAware ADS-B (CYQY)
Tue 11:01:24 AM 46.0000 -59.1500 68° East 550 633 31,000  Level Gander Center
Tue 11:02:59 AM 46.0833 -58.8167 70° East 540 621 31,000  Level Moncton Center
Tue 11:04:24 AM 46.1667 -58.5333 67° East 540 621 31,000  Level Gander Center
Tue 11:04:59 AM 46.1833 -58.4167 78° East 530 610 31,000  Level Moncton Center
Tue 11:05:59 AM 46.2333 -58.2000 71° East 530 610 31,000  Level Moncton Center
Tue 11:06:59 AM 46.3000 -58.0167 62° Northeast 530 610 31,000  Level Moncton Center
Tue 11:07:59 AM 46.3333 -57.8167 76° East 530 610 31,000  Level Moncton Center
Tue 11:08:59 AM 46.3833 -57.6000 71° East 530 610 31,000  Level Moncton Center
Tue 11:09:59 AM 46.4500 -57.4167 62° Northeast 530 610 31,000  Level Moncton Center
Tue 11:10:59 AM 46.5000 -57.2000 71° East 530 610 31,000  Level Moncton Center
Tue 11:11:59 AM 46.5333 -57.0167 75° East 520 598 31,000  Level Moncton Center
Tue 11:12:59 AM 46.5833 -56.8167 70° East 530 610 31,000  Level Moncton Center
Tue 11:13:59 AM 46.6500 -56.6167 64° Northeast 520 598 31,000  Level Moncton Center
Tue 11:14:59 AM 46.6833 -56.4167 76° East 530 610 31,000  Level Moncton Center
Tue 11:15:59 AM 46.7333 -56.2000 71° East 520 598 31,000  Level Moncton Center
Tue 11:16:59 AM 46.7833 -56.0000 70° East 530 610 31,000  Level Moncton Center
Tue 11:17:59 AM 46.8167 -55.8000 76° East 530 610 31,000  Level Moncton Center
Tue 11:18:59 AM 46.8667 -55.6000 70° East 530 610 31,000  Level Moncton Center
Tue 11:19:59 AM 46.9167 -55.3833 71° East 530 610 31,000  Level Moncton Center
Tue 11:20:59 AM 46.9667 -55.1833 70° East 530 610 31,000  Level Moncton Center
Tue 11:21:59 AM 47.0000 -54.9833 76° East 530 610 31,000  Level Moncton Center
Tue 11:23:24 AM 47.0667 -54.6833 72° East 530 610 31,000  Level Gander Center
Tue 11:23:59 AM 47.0833 -54.5667 78° East 530 610 31,000  Level Moncton Center
Tue 11:24:59 AM 47.1333 -54.3667 70° East 530 610 31,000  Level Moncton Center
Tue 11:25:59 AM 47.1833 -54.1500 71° East 530 610 31,000  Level Moncton Center
Tue 11:26:59 AM 47.2167 -53.9500 76° East 520 598 31,000  Level Moncton Center
Tue 11:27:59 AM 47.2667 -53.7500 70° East 520 598 31,000  Level Moncton Center
Tue 11:28:59 AM 47.3167 -53.5333 71° East 520 598 31,000  Level Moncton Center
Tue 11:29:59 AM 47.3500 -53.3500 75° East 520 598 31,000  Level Moncton Center
Tue 11:30:59 AM 47.4000 -53.1500 70° East 520 598 31,000  Level Moncton Center
Tue 11:31:59 AM 47.4333 -52.9333 77° East 520 598 31,000  Level Moncton Center
Tue 11:32:59 AM 47.4667 -52.7333 76° East 520 598 31,000  Level Moncton Center
Tue 11:34:06 AM 47.5167 -52.4833 73° East 520 598 31,000  Level Gander Center
Tue 11:34:59 AM 47.5667 -52.3167 66° East 520 598 31,000  Level Moncton Center
Tue 11:36:24 AM 47.6167 -52.0500 74° East 520 598 31,000  Level Gander Center
Tue 11:37:24 AM 47.6500 -51.8167 78° East 520 598 31,000  Level Gander Center
Tue 11:38:24 AM 47.6833 -51.6333 75° East 520 598 31,000  Level Gander Center
Tue 11:39:06 AM 47.7167 -51.4833 72° East 520 598 31,000  Level Gander Center
Tue 11:40:06 AM 47.7500 -51.2500 78° East 520 598 31,000  Level Gander Center
Tue 11:40:59 AM 47.7833 -51.0833 73° East 510 587 31,000  Level Moncton Center
Tue 11:41:59 AM 47.8167 -50.8833 76° East 510 587 31,000  Level Moncton Center
Tue 11:43:24 AM 47.8667 -50.5833 76° East 510 587 31,000  Level Gander Center
Tue 11:44:06 AM 47.8833 -50.4500 79° East 520 598 31,000  Level Gander Center
Tue 11:45:06 AM 47.9167 -50.2333 77° East 520 598 31,000  Level Gander Center
Tue 11:46:06 AM 47.9500 -50.0333 76° East 510 587 31,000  Level Gander Center
Tue 11:47:06 AM 48.0000 -49.8500 68° East 500 575 31,000  Level Gander Center
Tue 11:48:06 AM 48.0667 -49.6500 63° Northeast 480 552 31,000  Level Gander Center
Tue 11:49:06 AM 48.1333 -49.4833 59° Northeast 480 552 31,000  Level Gander Center
Tue 11:50:06 AM 48.2000 -49.3167 59° Northeast 480 552 31,000  Level Gander Center
Tue 11:51:06 AM 48.2500 -49.1333 68° East 480 552 31,000  Level Gander Center
Tue 11:52:06 AM 48.3000 -48.9833 63° Northeast 480 552 31,000 12 Level Gander Center
Tue 11:54:00 AM 48.4335 -48.6280 60° Northeast  Level FlightAware Approximate
Tue 12:01:00 PM 48.9158 -47.3026 61° Northeast  Level FlightAware Approximate
Tue 12:02:00 PM 48.9808 -47.1075 63° Northeast  Level FlightAware Approximate
Tue 12:03:00 PM 49.0451 -46.9132 63° Northeast  Level FlightAware Approximate
Tue 12:04:00 PM 49.1090 -46.7183 63° Northeast  Level FlightAware Approximate
Tue 12:05:00 PM 49.1726 -46.5230 63° Northeast  Level FlightAware Approximate
Tue 12:06:00 PM 49.2359 -46.3271 64° Northeast  Level FlightAware Approximate
Tue 12:07:00 PM 49.2984 -46.1305 64° Northeast  Level FlightAware Approximate
Tue 12:08:00 PM 49.3605 -45.9333 64° Northeast  Level FlightAware Approximate
Tue 12:09:00 PM 49.4222 -45.7355 64° Northeast  Level FlightAware Approximate
Tue 12:10:00 PM 49.4837 -45.5373 64° Northeast  Level FlightAware Approximate
Tue 12:11:00 PM 49.5447 -45.3385 65° Northeast  Level FlightAware Approximate
Tue 12:12:00 PM 49.6053 -45.1392 65° Northeast  Level FlightAware Approximate
Tue 12:13:00 PM 49.6654 -44.9393 65° Northeast  Level FlightAware Approximate
Tue 12:14:00 PM 49.7252 -44.7388 65° Northeast  Level FlightAware Approximate
Tue 12:15:00 PM 49.7846 -44.5379 65° Northeast  Level FlightAware Approximate
Tue 12:16:00 PM 49.8437 -44.3366 65° Northeast  Level FlightAware Approximate
Tue 12:17:00 PM 49.9024 -44.1347 66° East  Level FlightAware Approximate
Tue 12:18:00 PM 49.9608 -43.9323 66° East  Level FlightAware Approximate
Tue 12:19:00 PM 50.0188 -43.7295 66° East  Level FlightAware Approximate
Tue 12:20:00 PM 50.0765 -43.5261 66° East  Level FlightAware Approximate
Tue 12:21:00 PM 50.1338 -43.3223 66° East  Level FlightAware Approximate
Tue 12:22:00 PM 50.1908 -43.1179 66° East  Level FlightAware Approximate
Tue 12:23:00 PM 50.2474 -42.9131 67° East  Level FlightAware Approximate
Tue 12:24:00 PM 50.3036 -42.7078 67° East  Level FlightAware Approximate
Tue 12:25:00 PM 50.3595 -42.5020 67° East  Level FlightAware Approximate
Tue 12:26:00 PM 50.4150 -42.2958 67° East  Level FlightAware Approximate
Tue 12:27:00 PM 50.4701 -42.0890 67° East  Level FlightAware Approximate
Tue 12:28:00 PM 50.5249 -41.8818 67° East  Level FlightAware Approximate
Tue 12:29:00 PM 50.5793 -41.6741 68° East  Level FlightAware Approximate
Tue 12:30:00 PM 50.6334 -41.4659 68° East  Level FlightAware Approximate
Tue 12:31:00 PM 50.6870 -41.2572 68° East  Level FlightAware Approximate
Tue 12:32:00 PM 50.7403 -41.0481 68° East  Level FlightAware Approximate
Tue 12:33:00 PM 50.7932 -40.8385 68° East  Level FlightAware Approximate
Tue 12:34:00 PM 50.8458 -40.6284 68° East  Level FlightAware Approximate
Tue 12:35:00 PM 50.8979 -40.4178 68° East  Level FlightAware Approximate
Tue 12:36:00 PM 50.9497 -40.2068 69° East  Level FlightAware Approximate
Tue 12:37:00 PM 51.0007 -39.9950 77° East  Level FlightAware Approximate
Tue 12:38:00 PM 51.0327 -39.7739 77° East  Level FlightAware Approximate
Tue 12:39:00 PM 51.0642 -39.5524 77° East  Level FlightAware Approximate
Tue 12:40:00 PM 51.0953 -39.3307 77° East  Level FlightAware Approximate
Tue 12:41:00 PM 51.1260 -39.1086 78° East  Level FlightAware Approximate
Tue 12:42:00 PM 51.1562 -38.8862 78° East  Level FlightAware Approximate
Tue 12:43:00 PM 51.1861 -38.6636 78° East  Level FlightAware Approximate
Tue 12:44:00 PM 51.2155 -38.4407 78° East  Level FlightAware Approximate
Tue 12:45:00 PM 51.2445 -38.2175 78° East  Level FlightAware Approximate
Tue 12:46:00 PM 51.2731 -37.9940 78° East  Level FlightAware Approximate
Tue 12:47:00 PM 51.3012 -37.7702 79° East  Level FlightAware Approximate
Tue 12:48:00 PM 51.3289 -37.5462 79° East  Level FlightAware Approximate
Tue 12:49:00 PM 51.3562 -37.3218 79° East  Level FlightAware Approximate
Tue 12:50:00 PM 51.3831 -37.0973 79° East  Level FlightAware Approximate
Tue 12:51:00 PM 51.4095 -36.8724 79° East  Level FlightAware Approximate
Tue 12:52:00 PM 51.4355 -36.6473 79° East  Level FlightAware Approximate
Tue 12:53:00 PM 51.4611 -36.4220 80° East  Level FlightAware Approximate
Tue 12:54:00 PM 51.4862 -36.1964 80° East  Level FlightAware Approximate
Tue 12:55:00 PM 51.5109 -35.9706 80° East  Level FlightAware Approximate
Tue 12:56:00 PM 51.5352 -35.7445 80° East  Level FlightAware Approximate
Tue 12:57:00 PM 51.5590 -35.5181 80° East  Level FlightAware Approximate
Tue 12:58:00 PM 51.5824 -35.2916 80° East  Level FlightAware Approximate
Tue 12:59:00 PM 51.6054 -35.0648 81° East  Level FlightAware Approximate
Tue 01:00:00 PM 51.6279 -34.8377 81° East  Level FlightAware Approximate
Tue 01:01:00 PM 51.6500 -34.6105 81° East  Level FlightAware Approximate
Tue 01:02:00 PM 51.6716 -34.3830 81° East  Level FlightAware Approximate
Tue 01:03:00 PM 51.6928 -34.1554 81° East  Level FlightAware Approximate
Tue 01:04:00 PM 51.7136 -33.9275 82° East  Level FlightAware Approximate
Tue 01:05:00 PM 51.7339 -33.6994 82° East  Level FlightAware Approximate
Tue 01:06:00 PM 51.7538 -33.4711 82° East  Level FlightAware Approximate
Tue 01:07:00 PM 51.7733 -33.2426 82° East  Level FlightAware Approximate
Tue 01:08:00 PM 51.7923 -33.0139 82° East  Level FlightAware Approximate
Tue 01:09:00 PM 51.8108 -32.7850 82° East  Level FlightAware Approximate
Tue 01:10:00 PM 51.8289 -32.5559 83° East  Level FlightAware Approximate
Tue 01:11:00 PM 51.8466 -32.3267 83° East  Level FlightAware Approximate
Tue 01:12:00 PM 51.8638 -32.0972 83° East  Level FlightAware Approximate
Tue 01:13:00 PM 51.8806 -31.8676 83° East  Level FlightAware Approximate
Tue 01:14:00 PM 51.8969 -31.6378 83° East  Level FlightAware Approximate
Tue 01:15:00 PM 51.9128 -31.4079 84° East  Level FlightAware Approximate
Tue 01:16:00 PM 51.9282 -31.1778 84° East  Level FlightAware Approximate
Tue 01:17:00 PM 51.9432 -30.9475 84° East  Level FlightAware Approximate
Tue 01:18:00 PM 51.9577 -30.7171 84° East  Level FlightAware Approximate
Tue 01:19:00 PM 51.9718 -30.4866 84° East  Level FlightAware Approximate
Tue 01:20:00 PM 51.9854 -30.2559 84° East  Level FlightAware Approximate
Tue 01:21:00 PM 51.9986 -30.0251 85° East  Level FlightAware Approximate
Tue 01:22:00 PM 52.0282 -29.7984 77° East  Level FlightAware Approximate
Tue 01:23:00 PM 52.0594 -29.5719 77° East  Level FlightAware Approximate
Tue 01:24:00 PM 52.0902 -29.3451 77° East  Level FlightAware Approximate
Tue 01:25:00 PM 52.1206 -29.1180 78° East  Level FlightAware Approximate
Tue 01:26:00 PM 52.1506 -28.8906 78° East  Level FlightAware Approximate
Tue 01:27:00 PM 52.1804 -28.6630 78° East  Level FlightAware Approximate
Tue 01:28:00 PM 52.2102 -28.4353 78° East  Level FlightAware Approximate
Tue 01:29:00 PM 52.2396 -28.2073 78° East  Level FlightAware Approximate
Tue 01:30:00 PM 52.2685 -27.9789 78° East  Level FlightAware Approximate
Tue 01:31:00 PM 52.2970 -27.7502 78° East  Level FlightAware Approximate
Tue 01:32:00 PM 52.3251 -27.5213 79° East  Level FlightAware Approximate
Tue 01:33:00 PM 52.3527 -27.2921 79° East  Level FlightAware Approximate
Tue 01:34:00 PM 52.3798 -27.0626 79° East  Level FlightAware Approximate
Tue 01:35:00 PM 52.4066 -26.8328 79° East  Level FlightAware Approximate
Tue 01:36:00 PM 52.4328 -26.6027 79° East  Level FlightAware Approximate
Tue 01:37:00 PM 52.4586 -26.3724 79° East  Level FlightAware Approximate
Tue 01:38:00 PM 52.4841 -26.1418 80° East  Level FlightAware Approximate
Tue 01:39:00 PM 52.5092 -25.9110 80° East  Level FlightAware Approximate
Tue 01:40:00 PM 52.5339 -25.6799 80° East  Level FlightAware Approximate
Tue 01:41:00 PM 52.5580 -25.4485 80° East  Level FlightAware Approximate
Tue 01:42:00 PM 52.5818 -25.2169 80° East  Level FlightAware Approximate
Tue 01:43:00 PM 52.6051 -24.9851 81° East  Level FlightAware Approximate
Tue 01:44:00 PM 52.6279 -24.7530 81° East  Level FlightAware Approximate
Tue 01:45:00 PM 52.6503 -24.5207 81° East  Level FlightAware Approximate
Tue 01:46:00 PM 52.6722 -24.2881 81° East  Level FlightAware Approximate
Tue 01:47:00 PM 52.6937 -24.0553 81° East  Level FlightAware Approximate
Tue 01:48:00 PM 52.7147 -23.8223 81° East  Level FlightAware Approximate
Tue 01:49:00 PM 52.7357 -23.5891 81° East  Level FlightAware Approximate
Tue 01:50:00 PM 52.7563 -23.3558 82° East  Level FlightAware Approximate
Tue 01:51:00 PM 52.7764 -23.1222 82° East  Level FlightAware Approximate
Tue 01:52:00 PM 52.7961 -22.8885 82° East  Level FlightAware Approximate
Tue 01:53:00 PM 52.8153 -22.6544 82° East  Level FlightAware Approximate
Tue 01:54:00 PM 52.8340 -22.4203 82° East  Level FlightAware Approximate
Tue 01:55:00 PM 52.8523 -22.1859 83° East  Level FlightAware Approximate
Tue 01:56:00 PM 52.8701 -21.9513 83° East  Level FlightAware Approximate
Tue 01:57:00 PM 52.8875 -21.7165 83° East  Level FlightAware Approximate
Tue 01:58:00 PM 52.9044 -21.4815 83° East  Level FlightAware Approximate
Tue 01:59:00 PM 52.9208 -21.2464 83° East  Level FlightAware Approximate
Tue 02:00:00 PM 52.9368 -21.0110 83° East  Level FlightAware Approximate
Tue 02:01:00 PM 52.9523 -20.7756 84° East  Level FlightAware Approximate
Tue 02:02:00 PM 52.9673 -20.5399 84° East  Level FlightAware Approximate
Tue 02:03:00 PM 52.9819 -20.3041 84° East  Level FlightAware Approximate
Tue 02:04:00 PM 52.9960 -20.0681 84° East  Level FlightAware Approximate
Tue 02:05:00 PM 53.0046 -19.8314 87° East  Level FlightAware Approximate
Tue 02:06:00 PM 53.0105 -19.5944 88° East  Level FlightAware Approximate
Tue 02:07:00 PM 53.0160 -19.3573 88° East  Level FlightAware Approximate
Tue 02:08:00 PM 53.0211 -19.1201 88° East  Level FlightAware Approximate
Tue 02:09:00 PM 53.0257 -18.8829 88° East  Level FlightAware Approximate
Tue 02:10:00 PM 53.0298 -18.6456 88° East  Level FlightAware Approximate
Tue 02:11:00 PM 53.0334 -18.4083 88° East  Level FlightAware Approximate
Tue 02:12:00 PM 53.0365 -18.1710 89° East  Level FlightAware Approximate
Tue 02:13:00 PM 53.0392 -17.9336 89° East  Level FlightAware Approximate
Tue 02:14:00 PM 53.0414 -17.6962 89° East  Level FlightAware Approximate
Tue 02:15:00 PM 53.0432 -17.4588 89° East  Level FlightAware Approximate
Tue 02:16:00 PM 53.0444 -17.2214 89° East  Level FlightAware Approximate
Tue 02:17:00 PM 53.0452 -16.9839 90° East  Level FlightAware Approximate
Tue 02:18:00 PM 53.0455 -16.7465 90° East  Level FlightAware Approximate
Tue 02:19:00 PM 53.0454 -16.5091 90° East  Level FlightAware Approximate
Tue 02:20:00 PM 53.0447 -16.2716 90° East  Level FlightAware Approximate
Tue 02:21:00 PM 53.0436 -16.0342 90° East  Level FlightAware Approximate
Tue 02:22:00 PM 53.0421 -15.7967 91° East  Level FlightAware Approximate
Tue 02:23:00 PM 53.0400 -15.5593 91° East  Level FlightAware Approximate
Tue 02:24:00 PM 53.0375 -15.3220 91° East  Level FlightAware Approximate
Tue 02:25:00 PM 53.0345 -15.0846 91° East  Level FlightAware Approximate
Tue 02:26:00 PM 53.0316 -14.8473 91° East  Level FlightAware Approximate
Tue 02:27:00 PM 53.0286 -14.6100 91° East  Level FlightAware Approximate
Tue 02:28:00 PM 53.0250 -14.3727 91° East  Level FlightAware Approximate
Tue 02:29:00 PM 53.0210 -14.1355 92° East  Level FlightAware Approximate
Tue 02:30:00 PM 53.0166 -13.8983 92° East  Level FlightAware Approximate
Tue 02:31:00 PM 53.0116 -13.6611 92° East  Level FlightAware Approximate
Tue 02:32:00 PM 53.0062 -13.4241 92° East  Level FlightAware Approximate
Tue 02:33:00 PM 53.0003 -13.1870 92° East  Level FlightAware Approximate
Tue 02:34:00 PM 52.9940 -12.9501 92° East  Level FlightAware Approximate
Tue 02:35:00 PM 52.9871 -12.7132 93° East  Level FlightAware Approximate
Tue 02:36:00 PM 52.9798 -12.4764 93° East  Level FlightAware Approximate
Tue 02:37:00 PM 52.9721 -12.2397 93° East  Level FlightAware Approximate
Tue 02:38:00 PM 52.9638 -12.0031 93° East  Level FlightAware Approximate
Tue 02:39:00 PM 52.9551 -11.7665 93° East  Level FlightAware Approximate
Tue 02:39:19 PM 53.2331 -12.0272 84° East 517 595 33,000  Level FlightAware ADS-B (KHQM)
Tue 02:40:00 PM 52.9459 -11.5301 94° East  Level FlightAware Approximate
Tue 02:40:30 PM 53.2514 -11.7424 84° East 518 596 33,000  Level FlightAware ADS-B (KHQM)
Tue 02:41:36 PM 53.2677 -11.4795 84° East 522 601 33,000  Level FlightAware ADS-B (KHQM)
Tue 02:42:39 PM 53.2824 -11.2341 84° East 524 603 33,000  Level FlightAware ADS-B (KHQM)
Tue 02:43:14 PM 53.2903 -11.0987 84° East 525 604 33,000  Level FlightAware ADS-B (KHQM)
Tue 02:43:57 PM 53.3006 -10.9162 85° East 525 604 33,000  Level FlightAware ADS-B (KHQM)
Tue 02:44:30 PM 53.3079 -10.7868 85° East 526 605 33,000  Level FlightAware ADS-B (KHQM)
Tue 02:45:17 PM 53.3180 -10.5991 85° East 527 606 33,000  Level FlightAware ADS-B (KHQM)
Tue 02:45:56 PM 53.3267 -10.4328 85° East 527 606 33,000  Level FlightAware ADS-B (KHQM)
Tue 02:46:42 PM 53.3360 -10.2509 85° East 527 606 33,000  Level FlightAware ADS-B (KHQM)
Tue 02:47:12 PM 53.3421 -10.1289 85° East 528 608 33,000  Level FlightAware ADS-B (KHQM)
Tue 02:48:03 PM 53.3523 -9.9198 85° East 528 608 33,000  Level FlightAware ADS-B (KHQM)
Tue 02:48:33 PM 53.3579 -9.7996 86° East 528 608 33,000  Level FlightAware ADS-B (KHQM)
Tue 02:49:03 PM 53.3637 -9.6750 86° East 528 608 33,000  Level FlightAware ADS-B (KHQM)
Tue 02:49:44 PM 53.3710 -9.5096 86° East 528 608 33,000  Level FlightAware ADS-B (KHQM)
Tue 02:50:15 PM 53.3766 -9.3830 86° East 529 609 33,000  Level FlightAware ADS-B (KHQM)
Tue 02:50:50 PM 53.3826 -9.2405 86° East 530 610 33,000  Level FlightAware ADS-B (KLEX)
Tue 02:51:21 PM 53.3879 -9.1133 86° East 530 610 33,000  Level FlightAware ADS-B (KHQM)
Tue 02:51:51 PM 53.3926 -8.9946 86° East 530 610 33,000  Level FlightAware ADS-B (KHQM)
Tue 02:52:22 PM 53.3977 -8.8623 86° East 530 610 33,000  Level FlightAware UK
Tue 02:52:31 PM 53.3990 -8.8317 86° East 530 610 33,000  Level FlightAware ADS-B (KHQM)
Tue 02:53:10 PM 53.4049 -8.6753 86° East 530 610 33,000  Level FlightAware ADS-B (KHQM)
Tue 02:53:44 PM 53.4099 -8.5372 87° East 531 611 33,000  Level FlightAware ADS-B (KHQM)
Tue 02:54:15 PM 53.4145 -8.4065 87° East 531 611 33,000  Level FlightAware ADS-B (EGAA / BFS)
Tue 02:54:53 PM 53.4195 -8.2613 87° East 530 610 33,000  Level FlightAware ADS-B (EGAA / BFS)
Tue 02:55:24 PM 53.4231 -8.1504 87° East 531 611 33,000  Level FlightAware ADS-B (KHQM)
Tue 02:55:44 PM 53.4267 -8.0408 87° East 531 611 33,000  Level FlightAware ADS-B
Tue 02:56:03 PM 53.4291 -7.9634 88° East 530 610 33,000  Level FlightAware ADS-B (KLEX)
Tue 02:56:33 PM 53.4329 -7.8374 87° East 530 610 33,000  Level FlightAware ADS-B (KHQM)
Tue 02:56:51 PM 53.4351 -7.7671 88° East 530 610 33,000  Level FlightAware ADS-B (KLEX)
Tue 02:57:23 PM 53.4389 -7.6343 88° East 530 610 33,000  Level FlightAware UK
Tue 02:57:34 PM 53.4402 -7.5914 88° East 530 610 33,000  Level FlightAware ADS-B (KLEX)
Tue 02:58:05 PM 53.4437 -7.4603 88° East 531 611 33,000  Level FlightAware ADS-B (EGAA / BFS)
Tue 02:58:35 PM 53.4469 -7.3394 88° East 531 611 33,000  Level FlightAware ADS-B (EGAA / BFS)
Tue 02:59:05 PM 53.4500 -7.2164 88° East 532 612 33,000  Level FlightAware ADS-B
Tue 02:59:40 PM 53.4534 -7.0738 88° East 531 611 33,000  Level FlightAware ADS-B (EGAA / BFS)
Tue 03:00:14 PM 53.4566 -6.9338 88° East 532 612 33,000  Level FlightAware ADS-B (EGAA / BFS)
Tue 03:00:44 PM 53.4594 -6.8080 88° East 532 612 33,000  Level FlightAware ADS-B (EGAA / BFS)
Tue 03:01:14 PM 53.4619 -6.6851 88° East 532 612 33,000  Level FlightAware ADS-B (EGAA / BFS)
Tue 03:01:44 PM 53.4642 -6.5652 88° East 532 612 33,000  Level FlightAware ADS-B (EGAA / BFS)
Tue 03:02:19 PM 53.4668 -6.4324 88° East 532 612 33,000  Level FlightAware ADS-B (EGAA / BFS)
Tue 03:02:54 PM 53.4696 -6.2755 88° East 532 612 33,000  Level FlightAware ADS-B
Tue 03:03:37 PM 53.4723 -6.1078 89° East 532 612 33,000  Level FlightAware ADS-B (EGAA / BFS)
Tue 03:04:07 PM 53.4743 -5.9728 89° East 532 612 33,000  Level FlightAware ADS-B (EGAA / BFS)
Tue 03:04:43 PM 53.4762 -5.8300 89° East 532 612 33,000  Level FlightAware ADS-B (EGAA / BFS)
Tue 03:05:19 PM 53.4781 -5.6787 90° East 532 612 33,000  Level FlightAware ADS-B (KLEX)
Tue 03:05:53 PM 53.4795 -5.5364 90° East 534 615 33,000  Level FlightAware UK
Tue 03:06:00 PM 53.4789 -5.5123 92° East 534 615 33,000  Level FlightAware ADS-B (EGAA / BFS)
Tue 03:06:34 PM 53.4740 -5.3855 95° East 537 618 33,000  Level FlightAware ADS-B
Tue 03:07:05 PM 53.4641 -5.2427 98° East 539 620 33,000  Level FlightAware ADS-B (KLEX)
Tue 03:07:45 PM 53.4557 -5.1422 98° East 540 621 33,000  Level FlightAware ADS-B (EGAA / BFS)
Tue 03:08:18 PM 53.4376 -4.9404 99° East 540 621 33,000  Level FlightAware ADS-B (KLEX)
Tue 03:08:52 PM 53.4249 -4.8042 99° East 540 621 33,000  Level FlightAware ADS-B
Tue 03:09:23 PM 53.4130 -4.6811 99° East 540 621 33,000  Level FlightAware ADS-B
Tue 03:09:41 PM 53.4049 -4.5982 98° East 539 620 33,000  Level FlightAware ADS-B
Tue 03:10:22 PM 53.3884 -4.4325 100° East 540 621 33,000  Level FlightAware ADS-B
Tue 03:10:32 PM 53.3842 -4.3899 100° East 540 621 33,000  Level FlightAware ADS-B
Tue 03:10:36 PM 53.3834 -4.3820 100° East 539 620 33,000  Level FlightAware ADS-B
Tue 03:10:51 PM 53.3761 -4.3107 99° East 537 618 33,000  Level FlightAware ADS-B
Tue 03:10:58 PM 53.3730 -4.2808 99° East 538 619 33,000  Level FlightAware ADS-B (EGGP / LPL)
Tue 03:11:11 PM 53.3677 -4.2275 100° East 539 620 33,000  Level FlightAware ADS-B (KADS)
Tue 03:11:45 PM 53.3534 -4.0884 100° East 540 621 33,000  Level FlightAware ADS-B (EGCW)
Tue 03:11:52 PM 53.3505 -4.0602 99° East 539 620 33,000  Level FlightAware ADS-B
Tue 03:12:06 PM 53.3446 -4.0036 99° East 539 620 33,000  Level FlightAware ADS-B
Tue 03:12:37 PM 53.3312 -3.8758 99° East 538 619 33,000  Level FlightAware ADS-B (KEGE)
Tue 03:12:43 PM 53.3284 -3.8488 99° East 538 619 33,000  Level FlightAware ADS-B
Tue 03:13:05 PM 53.3189 -3.7582 99° East 538 619 33,000  Level FlightAware ADS-B (EGGP / LPL)
Tue 03:13:16 PM 53.3141 -3.7133 99° East 538 619 33,000  Level FlightAware ADS-B (EGGP / LPL)
Tue 03:13:24 PM 53.3106 -3.6802 99° East 538 619 33,000  Level FlightAware ADS-B (EGGP / LPL)
Tue 03:13:57 PM 53.2967 -3.5499 100° East 539 620 33,000  Level FlightAware ADS-B (EGCW)
Tue 03:13:58 PM 53.2959 -3.5424 100° East 539 620 33,000  Level FlightAware ADS-B
Tue 03:14:31 PM 53.2871 -3.4610 102° East 541 623 33,000  Level FlightAware ADS-B (EGLF / FAB)
Tue 03:14:38 PM 53.2764 -3.3812 102° East 540 621 33,000  Level FlightAware ADS-B
Tue 03:14:42 PM 53.2760 -3.3791 107° East 543 625 33,000  Level FlightAware ADS-B (KADS)
Tue 03:14:49 PM 53.2679 -3.3379 109° East 545 627 33,000  Level FlightAware ADS-B (KEGE)
Tue 03:14:57 PM 53.2602 -3.3046 112° Southeast 546 628 33,000  Level FlightAware ADS-B
Tue 03:15:00 PM 53.2576 -3.2944 108° East 545 627 33,000  Level FlightAware ADS-B (KADS)
Tue 03:15:08 PM 53.2494 -3.2650 116° Southeast 547 629 33,000  Level FlightAware ADS-B
Tue 03:15:17 PM 53.2383 -3.2300 118° Southeast 549 632 33,000  Level FlightAware ADS-B (EGGP / LPL)
Tue 03:15:20 PM 53.2340 -3.2176 120° Southeast 549 632 33,000  Level FlightAware ADS-B
Tue 03:15:40 PM 53.2061 -3.1493 127° Southeast 549 632 33,000  Level FlightAware ADS-B
Tue 03:15:46 PM 53.1960 -3.1284 128° Southeast 545 627 33,000  Level FlightAware ADS-B (EGGP / LPL)
Tue 03:15:56 PM 53.1795 -3.0941 128° Southeast 545 627 33,000  Level FlightAware ADS-B (EGGP / LPL)
Tue 03:16:11 PM 53.1569 -3.0468 128° Southeast 549 632 33,000  Level FlightAware ADS-B
Tue 03:16:17 PM 53.1472 -3.0266 128° Southeast 544 626 33,000  Level FlightAware ADS-B (EGGP / LPL)
Tue 03:16:23 PM 53.1373 -3.0062 128° Southeast 545 627 33,000  Level FlightAware ADS-B
Tue 03:16:38 PM 53.1139 -2.9582 128° Southeast 545 627 33,000  Level FlightAware ADS-B (EGGP / LPL)
Tue 03:16:41 PM 53.1083 -2.9468 129° Southeast 550 633 33,000  Level FlightAware ADS-B
Tue 03:16:47 PM 53.1007 -2.9312 128° Southeast 545 627 33,000  Level FlightAware ADS-B
Tue 03:17:13 PM 53.0573 -2.8426 129° Southeast 551 634 33,000  Level FlightAware ADS-B
Tue 03:17:21 PM 53.0476 -2.8229 129° Southeast 552 635 33,000  Level FlightAware ADS-B
Tue 03:17:51 PM 52.9960 -2.7183 129° Southeast 551 634 33,000  Level FlightAware ADS-B
Tue 03:17:52 PM 52.9959 -2.7183 129° Southeast 546 628 33,000  Level FlightAware ADS-B (EGHH / BOH)
Tue 03:18:22 PM 52.9471 -2.6194 129° Southeast 551 634 33,000  Level FlightAware ADS-B
Tue 03:18:25 PM 52.9412 -2.6074 129° Southeast 546 628 33,000  Level FlightAware ADS-B (LKVR)
Tue 03:18:52 PM 52.8985 -2.5212 129° Southeast 549 632 33,000  Level FlightAware ADS-B
Tue 03:18:56 PM 52.8935 -2.5112 129° Southeast 549 632 33,000  Level FlightAware ADS-B (EGDM)
Tue 03:19:07 PM 52.8745 -2.4730 130° Southeast 549 632 33,000  Level FlightAware ADS-B
Tue 03:19:19 PM 52.8576 -2.4390 130° Southeast 549 632 33,000  Level FlightAware ADS-B
Tue 03:19:24 PM 52.8473 -2.4183 129° Southeast 549 632 33,000  Level FlightAware ADS-B
Tue 03:19:42 PM 52.8202 -2.3637 129° Southeast 548 631 33,000  Level FlightAware ADS-B
Tue 03:19:47 PM 52.8107 -2.3446 129° Southeast 544 626 33,000  Level FlightAware ADS-B
Tue 03:19:55 PM 52.7977 -2.3187 129° Southeast 549 632 33,000  Level FlightAware ADS-B
Tue 03:20:07 PM 52.7778 -2.2787 129° Southeast 543 625 33,000  Level FlightAware ADS-B
Tue 03:20:20 PM 52.7735 -2.2701 130° Southeast 546 628 33,000 -316 Level FlightAware ADS-B (EGLF / FAB)
Tue 03:20:26 PM 52.7469 -2.2171 130° Southeast 544 626 32,900 -5,400 Descending FlightAware ADS-B
Tue 03:20:30 PM 52.7430 -2.2093 129° Southeast 538 619 32,100 -2,571 Descending FlightAware ADS-B
Tue 03:20:47 PM 52.7135 -2.1504 129° Southeast 538 619 32,000 -1,688 Descending FlightAware ADS-B
Tue 03:21:02 PM 52.6893 -2.1022 130° Southeast 543 625 31,200 -3,300 Descending FlightAware ADS-B
Tue 03:21:07 PM 52.6811 -2.0861 129° Southeast 539 620 30,900 -3,333 Descending FlightAware ADS-B
Tue 03:21:11 PM 52.6766 -2.0770 129° Southeast 539 620 30,700 -3,429 Descending FlightAware ADS-B (EGHH / BOH)
Tue 03:21:28 PM 52.6481 -2.0209 129° Southeast 540 621 29,700 -3,391 Descending FlightAware ADS-B
Tue 03:21:34 PM 52.6381 -2.0013 130° Southeast 546 628 29,400 -3,000 Descending FlightAware ADS-B
Tue 03:21:42 PM 52.6262 -1.9780 129° Southeast 540 621 29,000 -3,400 Descending FlightAware ADS-B
Tue 03:22:04 PM 52.5904 -1.9067 130° Southeast 544 626 27,700 -3,257 Descending FlightAware ADS-B
Tue 03:22:17 PM 52.5700 -1.8669 129° Southeast 538 619 27,100 -3,000 Descending FlightAware ADS-B (KEGE)
Tue 03:22:32 PM 52.5463 -1.8201 130° Southeast 537 618 26,300 -2,842 Descending FlightAware ADS-B
Tue 03:22:36 PM 52.5396 -1.8070 130° Southeast 540 621 26,200 -3,257 Descending FlightAware ADS-B
Tue 03:23:07 PM 52.4910 -1.7123 130° Southeast 523 602 24,400 -3,455 Descending FlightAware ADS-B
Tue 03:23:09 PM 52.4870 -1.7045 129° Southeast 515 593 24,300 -3,000 Descending FlightAware ADS-B (EGHH / BOH)
Tue 03:23:21 PM 52.4696 -1.6702 129° Southeast 507 583 23,700 -3,545 Descending FlightAware ADS-B (EGHH / BOH)
Tue 03:23:31 PM 52.4545 -1.6407 130° Southeast 507 583 23,000 -3,882 Descending FlightAware ADS-B
Tue 03:23:38 PM 52.4428 -1.6181 130° Southeast 505 581 22,600 -3,600 Descending FlightAware ADS-B
Tue 03:24:01 PM 52.4099 -1.5543 130° Southeast 499 574 21,200 -3,455 Descending FlightAware ADS-B (EGLF / FAB)
Tue 03:24:11 PM 52.3938 -1.5229 130° Southeast 495 570 20,700 -1,800 Descending FlightAware ADS-B
Tue 03:24:31 PM 52.3650 -1.4675 130° Southeast 481 554 20,300 -1,200 Descending FlightAware ADS-B
Tue 03:24:36 PM 52.3584 -1.4549 131° Southeast 476 548 20,200 -750 Descending FlightAware ADS-B
Tue 03:24:47 PM 52.3412 -1.4270 138° Southeast 468 539 20,100 -900 Descending FlightAware ADS-B
Tue 03:24:56 PM 52.3287 -1.4106 143° Southeast 461 531 19,900 -1,385 Descending FlightAware ADS-B (EGHH / BOH)
Tue 03:25:00 PM 52.3190 -1.3992 144° Southeast 459 528 19,800 -2,286 Descending FlightAware ADS-B
Tue 03:25:17 PM 52.2890 -1.3642 144° Southeast 455 524 19,100 -2,129 Descending FlightAware ADS-B
Tue 03:25:31 PM 52.2670 -1.3382 144° Southeast 445 512 18,700 -2,063 Descending FlightAware ADS-B
Tue 03:25:49 PM 52.2379 -1.3040 144° Southeast 447 514 18,000 -2,077 Descending FlightAware ADS-B
Tue 03:25:57 PM 52.2224 -1.2856 144° Southeast 443 510 17,800 -1,600 Descending FlightAware ADS-B
Tue 03:26:19 PM 52.1864 -1.2429 144° Southeast 434 499 17,200 -1,600 Descending FlightAware ADS-B
Tue 03:26:27 PM 52.1738 -1.2278 143° Southeast 425 489 17,000 -1,929 Descending FlightAware ADS-B (EGHH / BOH)
Tue 03:26:47 PM 52.1423 -1.1909 143° Southeast 419 482 16,300 -2,182 Descending FlightAware ADS-B (EGHH / BOH)
Tue 03:26:49 PM 52.1378 -1.1855 144° Southeast 425 489 16,200 -1,800 Descending FlightAware ADS-B
Tue 03:26:57 PM 52.1266 -1.1704 139° Southeast 425 489 16,000 -2,000 Descending FlightAware ADS-B
Tue 03:27:04 PM 52.1165 -1.1541 134° Southeast 423 487 15,700 -2,182 Descending FlightAware ADS-B
Tue 03:27:08 PM 52.1118 -1.1456 131° Southeast 422 486 15,600 -1,800 Descending FlightAware ADS-B
Tue 03:27:14 PM 52.1044 -1.1307 129° Southeast 419 482 15,400 -1,500 Descending FlightAware ADS-B
Tue 03:27:16 PM 52.1028 -1.1276 130° Southeast 421 484 15,400 -1,500 Level FlightAware ADS-B
Tue 03:27:22 PM 52.0954 -1.1101 124° Southeast 415 478 15,200 -1,714 Descending FlightAware ADS-B
Tue 03:27:23 PM 52.0950 -1.1091 123° Southeast 414 476 15,200 -2,000 Level FlightAware ADS-B (EGHH / BOH)
Tue 03:27:34 PM 52.0845 -1.0778 116° Southeast 410 472 14,800 -2,100 Descending FlightAware ADS-B
Tue 03:27:43 PM 52.0778 -1.0508 110° East 405 466 14,500 -1,895 Descending FlightAware ADS-B
Tue 03:27:53 PM 52.0727 -1.0216 104° East 400 460 14,200 -1,826 Descending FlightAware ADS-B
Tue 03:28:06 PM 52.0693 -0.9850 100° East 398 458 13,800 -1,765 Descending FlightAware ADS-B (EGHH / BOH)
Tue 03:28:10 PM 52.0684 -0.9732 96° East 392 451 13,700 -1,000 Descending FlightAware ADS-B (EGDJ / UPV)
Tue 03:28:24 PM 52.0651 -0.9312 98° East 389 448 13,500 -882 Descending FlightAware ADS-B
Tue 03:28:44 PM 52.0609 -0.8756 97° East 390 449 13,200 -968 Descending FlightAware ADS-B
Tue 03:28:55 PM 52.0585 -0.8428 96° East 390 449 13,000 -923 Descending FlightAware ADS-B
Tue 03:28:57 PM 52.0583 -0.8399 95° East 389 448 13,000  Level FlightAware ADS-B (EGHH / BOH)
Tue 03:29:08 PM 52.0560 -0.8058 97° East 388 447 13,000  Level FlightAware ADS-B (EGLL / LHR)
Tue 03:29:13 PM 52.0549 -0.7894 96° East 387 445 13,000  Level FlightAware ADS-B (EGLF / FAB)
Tue 03:29:25 PM 52.0525 -0.7558 96° East 389 448 13,000  Level FlightAware ADS-B
Tue 03:29:27 PM 52.0522 -0.7516 95° East 390 449 13,000  Level FlightAware ADS-B (EGHH / BOH)
Tue 03:29:36 PM 52.0503 -0.7262 95° East 391 450 13,000  Level FlightAware ADS-B (EGHH / BOH)
Tue 03:29:56 PM 52.0461 -0.6666 97° East 391 450 13,000  Level FlightAware ADS-B
Tue 03:30:26 PM 52.0397 -0.5775 97° East 391 450 13,000  Level FlightAware ADS-B
Tue 03:30:27 PM 52.0396 -0.5758 97° East 391 450 13,000 -581 Level FlightAware ADS-B
Tue 03:30:57 PM 52.0330 -0.4888 97° East 393 452 12,700 -545 Descending FlightAware ADS-B
Tue 03:31:00 PM 52.0323 -0.4799 97° East 393 452 12,700 -968 Level FlightAware ADS-B (EGLL / LHR)
Tue 03:31:28 PM 52.0259 -0.3981 97° East 388 447 12,200 -1,000 Descending FlightAware ADS-B
Tue 03:31:30 PM 52.0257 -0.3954 97° East 388 447 12,200 -400 Level FlightAware ADS-B (EGLL / LHR)
Tue 03:31:58 PM 52.0193 -0.3140 97° East 364 419 12,000 -300 Descending FlightAware ADS-B
Tue 03:32:10 PM 52.0170 -0.2846 96° East 345 397 12,000  Level FlightAware ADS-B
Tue 03:32:26 PM 52.0138 -0.2432 97° East 315 362 12,000  Level FlightAware ADS-B
Tue 03:32:43 PM 52.0109 -0.2058 97° East 301 346 12,000 -387 Level FlightAware ADS-B
Tue 03:32:57 PM 52.0086 -0.1752 97° East 294 338 11,800 -800 Descending FlightAware ADS-B
Tue 03:33:13 PM 52.0064 -0.1469 97° East 290 334 11,600 -1,000 Descending FlightAware ADS-B (EGLF / FAB)
Tue 03:33:27 PM 52.0035 -0.1088 97° East 288 331 11,300 -1,059 Descending FlightAware ADS-B
Tue 03:33:47 PM 52.0003 -0.0671 97° East 285 328 11,000 -581 Descending FlightAware ADS-B
Tue 03:33:58 PM 51.9984 -0.0450 98° East 282 325 11,000  Level FlightAware ADS-B
Tue 03:34:06 PM 51.9961 -0.0264 103° East 283 326 11,000  Level FlightAware ADS-B
Tue 03:34:10 PM 51.9944 -0.0193 112° Southeast 284 327 11,000  Level FlightAware ADS-B
Tue 03:34:12 PM 51.9950 -0.0214 113° Southeast 284 327 11,000  Level FlightAware ADS-B
Tue 03:34:14 PM 51.9922 -0.0122 117° Southeast 285 328 11,000  Level FlightAware ADS-B
Tue 03:34:15 PM 51.9916 -0.0106 119° Southeast 288 331 11,000  Level FlightAware ADS-B
Tue 03:34:20 PM 51.9876 -0.0019 127° Southeast 290 334 11,000 -667 Level FlightAware ADS-B
Tue 03:34:24 PM 51.9832 0.0052 136° Southeast 289 333 10,900 -667 Descending FlightAware ADS-B
Tue 03:34:29 PM 51.9862 0.0006 130° Southeast 285 328 10,900  Level FlightAware ADS-B
Tue 03:34:30 PM 51.9775 0.0121 145° Southeast 289 333 10,900 -1,200 Level FlightAware ADS-B
Tue 03:34:34 PM 51.9729 0.0162 152° Southeast 287 330 10,800 -750 Descending FlightAware ADS-B
Tue 03:34:38 PM 51.9679 0.0194 158° South 285 328 10,800 -1,200 Level FlightAware ADS-B
Tue 03:34:39 PM 51.9673 0.0198 161° South 284 327 10,700 -1,000 Descending FlightAware ADS-B
Tue 03:34:44 PM 51.9604 0.0232 163° South 283 326 10,700 -900 Level FlightAware ADS-B
Tue 03:34:59 PM 51.9421 0.0317 163° South 281 323 10,400 -1,200 Descending FlightAware ADS-B
Tue 03:35:09 PM 51.9290 0.0381 163° South 281 323 10,200 -1,125 Descending FlightAware ADS-B
Tue 03:35:15 PM 51.9215 0.0431 157° South 281 323 10,100 -1,091 Descending FlightAware ADS-B
Tue 03:35:20 PM 51.9165 0.0480 148° Southeast 283 326 10,000 -1,800 Descending FlightAware ADS-B
Tue 03:35:25 PM 51.9113 0.0551 139° Southeast 282 325 9,800 -2,000 Descending FlightAware ADS-B
Tue 03:35:26 PM 51.9123 0.0537 137° Southeast 282 325 9,800  Level FlightAware ADS-B (EGLC / LCY)
Tue 03:35:29 PM 51.9080 0.0612 132° Southeast 281 323 9,800 -1,200 Level FlightAware ADS-B
Tue 03:35:31 PM 51.9104 0.0565 128° Southeast 281 323 9,700 -1,500 Descending FlightAware ADS-B
Tue 03:35:33 PM 51.9050 0.0684 124° Southeast 279 321 9,700 -1,000 Level FlightAware ADS-B
Tue 03:35:37 PM 51.9027 0.0755 117° Southeast 278 320 9,600 -1,500 Descending FlightAware ADS-B
Tue 03:35:41 PM 51.9010 0.0832 112° Southeast 276 318 9,500 -1,500 Descending FlightAware ADS-B
Tue 03:35:45 PM 51.8998 0.0913 103° East 273 314 9,400 -1,500 Descending FlightAware ADS-B
Tue 03:35:49 PM 51.9053 0.0675 97° East 269 310 9,300 -857 Descending FlightAware ADS-B (EGLC / LCY)
Tue 03:35:52 PM 51.8994 0.1050 94° East 268 308 9,300 -2,000 Level FlightAware ADS-B
Tue 03:35:55 PM 51.8998 0.1114 85° East 260 299 9,100 -2,400 Descending FlightAware ADS-B
Tue 03:35:57 PM 51.9002 0.1149 82° East 258 297 9,100 -1,500 Level FlightAware ADS-B
Tue 03:35:59 PM 51.9009 0.1189 77° East 255 293 9,000 -2,000 Descending FlightAware ADS-B
Tue 03:36:00 PM 51.9012 0.1206 76° East 255 293 9,000 -2,000 Level FlightAware ADS-B
Tue 03:36:05 PM 51.9036 0.1296 64° Northeast 248 285 8,800 -2,250 Descending FlightAware ADS-B
Tue 03:36:08 PM 51.9056 0.1347 60° Northeast 247 284 8,700 -3,000 Descending FlightAware ADS-B
Tue 03:36:09 PM 51.9021 0.1244 58° Northeast 247 284 8,600 -1,714 Descending FlightAware ADS-B
Tue 03:36:15 PM 51.9081 0.1397 45° Northeast 240 276 8,500 -1,714 Descending FlightAware ADS-B
Tue 03:36:16 PM 51.9117 0.1455 44° Northeast 240 276 8,400 -2,400 Descending FlightAware ADS-B
Tue 03:36:20 PM 51.9149 0.1502 41° Northeast 237 273 8,300 -2,500 Descending FlightAware ADS-B
Tue 03:36:28 PM 51.9187 0.1553 40° Northeast 238 274 7,900 -2,333 Descending FlightAware ADS-B
Tue 03:36:38 PM 51.9297 0.1705 41° Northeast 238 274 7,600 -2,286 Descending FlightAware ADS-B
Tue 03:36:49 PM 51.9381 0.1822 41° Northeast 238 274 7,100 -2,400 Descending FlightAware ADS-B (EGLC / LCY)
Tue 03:36:53 PM 51.9426 0.1884 41° Northeast 238 274 7,000 -1,600 Descending FlightAware ADS-B
Tue 03:37:04 PM 51.9514 0.2007 41° Northeast 240 276 6,700 -1,333 Descending FlightAware ADS-B
Tue 03:37:20 PM 51.9651 0.2196 40° Northeast 239 275 6,400 -1,200 Descending FlightAware ADS-B
Tue 03:37:29 PM 51.9706 0.2273 40° Northeast 238 274 6,200 -900 Descending FlightAware ADS-B
Tue 03:37:40 PM 51.9819 0.2425 40° Northeast 238 274 6,100 -667 Descending FlightAware ADS-B
Tue 03:37:47 PM 51.9880 0.2506 40° Northeast 235 270 6,000 -923 Descending FlightAware ADS-B
Tue 03:38:06 PM 52.0030 0.2711 41° Northeast 233 268 5,700 -882 Descending FlightAware ADS-B
Tue 03:38:21 PM 52.0157 0.2889 41° Northeast 233 268 5,500 -968 Descending FlightAware ADS-B (EGLC / LCY)
Tue 03:38:37 PM 52.0271 0.3050 41° Northeast 232 267 5,200 -1,091 Descending FlightAware ADS-B (EGLC / LCY)
Tue 03:38:54 PM 52.0387 0.3217 42° Northeast 225 259 4,900 -923 Descending FlightAware ADS-B (EGLF / FAB)
Tue 03:39:03 PM 52.0455 0.3316 52° Northeast 209 241 4,800 -261 Descending FlightAware ADS-B
Tue 03:39:17 PM 52.0565 0.3522 61° Northeast 211 243 4,800 -333 Level FlightAware ADS-B
Tue 03:39:21 PM 52.0572 0.3551 76° East 214 246 4,700 -800 Descending FlightAware ADS-B
Tue 03:39:32 PM 52.0584 0.3700 99° East 213 245 4,600 -900 Descending FlightAware ADS-B
Tue 03:39:41 PM 52.0548 0.3896 113° Southeast 211 243 4,400 -1,143 Descending FlightAware ADS-B
Tue 03:39:53 PM 52.0486 0.4048 130° Southeast 211 243 4,200 -960 Descending FlightAware ADS-B
Tue 03:40:06 PM 52.0376 0.4161 163° South 203 234 4,000 -1,200 Descending FlightAware ADS-B
Tue 03:40:18 PM 52.0277 0.4169 186° South 198 228 3,700 -1,364 Descending FlightAware ADS-B
Tue 03:40:28 PM 52.0192 0.4144 192° South 198 228 3,500 -1,500 Descending FlightAware ADS-B
Tue 03:40:46 PM 52.0105 0.4114 191° South 202 232 3,000 -1,371 Descending FlightAware ADS-B (EGLC / LCY)
Tue 03:41:03 PM 51.9896 0.3973 228° Southwest 174 200 2,700 -923 Descending FlightAware ADS-B
Tue 03:41:25 PM 51.9816 0.3811 228° Southwest 159 183 2,400 -906 Descending FlightAware ADS-B
Tue 03:41:56 PM 51.9632 0.3525 228° Southwest 138 159 1,900 -878 Descending FlightAware UK
Tue 03:42:06 PM 51.9611 0.3494 223° Southwest 152 175 1,800 -649 Descending FlightAware ADS-B (EGLC / LCY)
Tue 03:42:33 PM 51.9475 0.3288 223° Southwest 126 145 1,500 -625 Descending FlightAware ADS-B
Tue 03:42:54 PM 51.9387 0.3155 223° Southwest 126 145 1,300 -712 Descending FlightAware ADS-B
Tue 03:43:32 PM 51.9222 0.2908 223° Southwest 126 145 800 -750 Descending FlightAware UK
Tue 03:43:50 PM 51.9146 0.2792 223° Southwest 124 143 600 -667 Descending FlightAware UK
Tue 03:44:08 PM 51.9069 0.2677 223° Southwest 126 145 400 -667 Descending FlightAware UK
Tue 03:44:26 PM 51.8992 0.2562 223° Southwest 130 150 200 -667 Descending FlightAware UK

Login

Don't have an account? Register now (free) for customized features, flight alerts, and more!